Time;durP1;ratioP1;P1;durP2;ratioP2;P2;SDS_P1;SDS_P2;PMS_P1;PMS_P2;Temp;Humidity;BMP_temperature;BMP_pressure;BME280_temperature;BME280_humidity;BME280_pressure;Samples;Min_cycle;Max_cycle;Signal;HPM_P1;HPM_P2
2021/04/05 00:05:29;;;;;;;10.27;3.25;;;2.50;99.90;;;;;;20919279;28;20174;-75
2021/04/05 00:15:30;;;;;;;8.55;3.53;;;2.40;99.90;;;;;;20899012;28;20041;-76
2021/04/05 00:25:32;;;;;;;8.05;4.68;;;2.40;99.90;;;;;;20836748;28;20029;-77
2021/04/05 00:35:36;;;;;;;9.10;4.15;;;1.90;99.90;;;;;;20870380;28;20044;-76
2021/04/05 00:45:38;;;;;;;9.25;4.70;;;1.80;99.90;;;;;;20837369;28;20590;-76
2021/04/05 00:55:44;;;;;;;11.13;4.25;;;1.70;99.90;;;;;;20812421;28;20040;-75
2021/04/05 01:05:48;;;;;;;11.38;3.95;;;1.70;99.90;;;;;;20809545;28;20065;-76
2021/04/05 01:15:48;;;;;;;6.97;3.50;;;1.70;99.90;;;;;;20808665;28;20045;-77
2021/04/05 01:25:49;;;;;;;;;;;1.40;99.90;;;;;;20844650;28;20407;-76
2021/04/05 01:35:57;;;;;;;11.07;4.45;;;1.30;99.90;;;;;;20823190;28;19912;-75
2021/04/05 01:45:59;;;;;;;8.85;4.38;;;1.30;99.90;;;;;;20826069;28;20558;-77
2021/04/05 01:56:05;;;;;;;10.43;4.05;;;1.30;99.90;;;;;;20892799;28;20127;-76
2021/04/05 02:06:11;;;;;;;15.13;3.75;;;1.10;99.90;;;;;;20849067;28;20026;-75
2021/04/05 02:16:17;;;;;;;6.70;3.30;;;0.90;99.90;;;;;;20807807;28;20844;-76
2021/04/05 02:26:28;;;;;;;15.27;4.10;;;1.00;99.90;;;;;;20886561;28;20609;-76
2021/04/05 02:36:31;;;;;;;10.50;4.30;;;0.70;99.90;;;;;;20887885;28;20048;-74
2021/04/05 02:46:34;;;;;;;6.22;3.50;;;0.80;99.90;;;;;;20888444;28;20430;-76
2021/04/05 02:56:37;;;;;;;9.52;3.25;;;0.90;99.90;;;;;;20900458;28;20052;-77
2021/04/05 03:06:38;;;;;;;13.57;4.20;;;0.80;99.90;;;;;;20905117;28;20029;-77
2021/04/05 03:16:40;;;;;;;7.15;3.88;;;0.20;99.90;;;;;;20905906;28;20036;-77
2021/04/05 03:26:41;;;;;;;13.57;4.30;;;0.40;99.90;;;;;;20908057;28;20084;-77
2021/04/05 03:36:53;;;;;;;9.18;3.63;;;0.70;99.90;;;;;;20891799;28;20032;-77
2021/04/05 03:46:59;;;;;;;9.60;3.67;;;0.20;99.90;;;;;;20919774;28;20041;-77
2021/04/05 03:57:03;;;;;;;8.00;3.88;;;0.30;99.90;;;;;;20920448;28;20029;-77
2021/04/05 04:07:14;;;;;;;7.57;3.88;;;0.10;99.90;;;;;;20917978;28;20437;-77
2021/04/05 04:17:17;;;;;;;9.02;4.32;;;0.00;99.90;;;;;;20917453;28;20090;-77
2021/04/05 04:27:18;;;;;;;8.48;4.15;;;-0.10;99.90;;;;;;20917516;28;20530;-77
2021/04/05 04:37:19;;;;;;;11.13;4.30;;;0.00;99.90;;;;;;20917021;28;20029;-77
2021/04/05 04:47:21;;;;;;;10.20;4.82;;;-0.10;99.90;;;;;;20914422;28;20491;-77
2021/04/05 04:57:21;;;;;;;15.18;4.88;;;-0.10;99.90;;;;;;20914457;28;20441;-77
2021/04/05 05:07:25;;;;;;;10.13;5.40;;;0.00;99.90;;;;;;20914676;28;20111;-77
2021/04/05 05:17:28;;;;;;;10.32;3.88;;;0.10;99.90;;;;;;20895708;28;20511;-77
2021/04/05 05:27:30;;;;;;;13.10;4.28;;;0.30;99.90;;;;;;20911715;28;20040;-78
2021/04/05 05:37:31;;;;;;;11.50;4.18;;;-0.10;99.90;;;;;;20911983;28;20025;-76
2021/04/05 05:48:03;;;;;;;12.10;4.57;;;0.00;99.90;;;;;;20910357;28;20045;-76
2021/04/05 05:58:20;;;;;;;9.23;3.88;;;0.30;99.90;;;;;;20910796;28;20032;-77
2021/04/05 06:08:58;;;;;;;9.20;4.15;;;1.20;99.90;;;;;;20909108;28;20682;-77
2021/04/05 06:18:59;;;;;;;14.50;5.28;;;2.10;99.90;;;;;;20908755;28;20317;-77
2021/04/05 06:29:16;;;;;;;11.47;5.00;;;2.50;99.90;;;;;;20908114;28;20033;-78
2021/04/05 06:39:28;;;;;;;29.23;9.10;;;2.70;99.90;;;;;;20891001;28;20279;-77
2021/04/05 06:49:57;;;;;;;10.85;4.90;;;3.00;99.90;;;;;;20908045;28;20083;-77
2021/04/05 07:00:03;;;;;;;11.43;5.57;;;3.60;99.90;;;;;;20908081;28;20061;-77
2021/04/05 07:10:27;;;;;;;22.88;9.30;;;4.20;99.90;;;;;;20910057;28;20403;-77
2021/04/05 07:20:40;;;;;;;13.80;4.75;;;5.20;99.90;;;;;;20926743;28;20035;-77
2021/04/05 07:30:50;;;;;;;15.43;5.47;;;6.70;99.90;;;;;;20923868;28;20036;-77
2021/04/05 07:40:51;;;;;;;22.65;6.82;;;7.50;99.90;;;;;;20920459;28;20079;-77
2021/04/05 07:51:19;;;;;;;21.60;6.57;;;7.60;99.90;;;;;;20875002;28;20025;-77
2021/04/05 08:01:38;;;;;;;8.00;3.80;;;7.20;99.90;;;;;;20863963;28;20087;-77
2021/04/05 08:11:50;;;;;;;9.43;4.22;;;7.30;99.90;;;;;;20877052;28;20112;-76
2021/04/05 08:22:37;;;;;;;7.68;3.28;;;8.10;99.90;;;;;;20875182;28;20032;-76
2021/04/05 08:32:47;;;;;;;10.00;4.88;;;9.00;99.90;;;;;;20857568;28;20045;-75
2021/04/05 08:43:14;;;;;;;25.88;4.88;;;9.70;99.90;;;;;;20868724;28;20492;-77
2021/04/05 08:53:17;;;;;;;14.82;5.32;;;10.20;99.90;;;;;;20873042;28;20079;-73
2021/04/05 09:03:22;;;;;;;11.13;4.65;;;10.60;99.90;;;;;;20869731;28;20075;-76
2021/04/05 09:13:46;;;;;;;12.45;4.03;;;10.60;99.90;;;;;;20893985;23;20060;-76
2021/04/05 09:24:14;;;;;;;17.35;5.47;;;10.60;99.90;;;;;;20954750;28;20137;-77
2021/04/05 09:34:47;;;;;;;15.82;6.20;;;10.90;99.90;;;;;;20876969;28;20032;-77
2021/04/05 09:45:14;;;;;;;16.30;5.63;;;11.60;99.90;;;;;;20876487;28;20045;-76
2021/04/05 09:55:20;;;;;;;23.85;6.95;;;11.60;99.90;;;;;;20928748;28;20801;-76
2021/04/05 10:05:23;;;;;;;18.67;6.20;;;11.50;99.90;;;;;;20871331;28;20039;-76
2021/04/05 10:15:28;;;;;;;18.13;6.97;;;11.10;99.90;;;;;;20892853;28;20072;-76
2021/04/05 10:25:30;;;;;;;23.73;7.55;;;10.90;99.90;;;;;;20873044;28;20037;-76
2021/04/05 10:35:36;;;;;;;17.13;5.93;;;11.10;99.90;;;;;;20877933;28;20069;-76
2021/04/05 10:45:39;;;;;;;20.50;6.20;;;11.60;99.90;;;;;;20896747;28;20036;-77
2021/04/05 10:55:51;;;;;;;22.63;6.38;;;11.80;99.90;;;;;;20873551;28;20086;-77
2021/04/05 11:05:59;;;;;;;12.07;5.38;;;12.70;99.90;;;;;;20864043;28;20120;-78
2021/04/05 11:16:05;;;;;;;15.45;5.13;;;13.50;99.90;;;;;;20836369;28;20053;-77
2021/04/05 11:26:09;;;;;;;19.90;5.00;;;13.40;99.90;;;;;;20804229;28;20154;-75
2021/04/05 11:36:10;;;;;;;16.55;4.68;;;14.40;99.90;;;;;;20803807;28;20060;-74
2021/04/05 11:46:13;;;;;;;15.93;4.50;;;14.60;99.90;;;;;;20802239;28;20566;-74
2021/04/05 11:56:14;;;;;;;11.25;4.00;;;14.80;99.90;;;;;;20801789;28;20116;-75
2021/04/05 12:06:22;;;;;;;13.15;3.38;;;15.70;99.90;;;;;;20857736;28;20396;-76
2021/04/05 12:16:25;;;;;;;6.55;2.65;;;15.90;99.90;;;;;;20856925;28;20487;-76
2021/04/05 12:26:29;;;;;;;6.47;2.28;;;15.90;96.50;;;;;;20851422;28;20545;-77
2021/04/05 12:36:35;;;;;;;7.03;2.00;;;16.40;92.40;;;;;;20841595;28;20102;-77
2021/04/05 12:46:38;;;;;;;5.78;2.28;;;16.30;89.20;;;;;;20816377;28;20033;-76
2021/04/05 12:56:42;;;;;;;10.48;2.63;;;16.10;91.40;;;;;;20894202;28;20037;-76
2021/04/05 13:06:53;;;;;;;7.53;2.28;;;15.40;91.80;;;;;;20894557;28;20505;-74
2021/04/05 13:17:05;;;;;;;8.70;1.83;;;15.00;91.80;;;;;;20894830;28;20618;-74
2021/04/05 13:27:09;;;;;;;10.20;1.98;;;15.80;90.90;;;;;;20892346;28;20029;-76
2021/04/05 13:37:14;;;;;;;5.85;2.28;;;15.90;88.10;;;;;;20892621;28;20041;-77
2021/04/05 13:47:16;;;;;;;8.45;2.05;;;15.40;90.00;;;;;;20891490;28;20065;-76
2021/04/05 13:57:19;;;;;;;11.25;2.55;;;15.20;90.10;;;;;;20893130;28;20916;-76
2021/04/05 14:07:21;;;;;;;10.73;2.55;;;15.20;90.50;;;;;;20889931;28;20037;-75
2021/04/05 14:17:30;;;;;;;;;;;14.60;91.40;;;;;;20891130;28;20041;-76
2021/04/05 14:27:52;;;;;;;9.80;3.10;;;14.50;92.30;;;;;;20889552;28;19942;-74
2021/04/05 14:38:01;;;;;;;9.07;3.08;;;13.80;92.40;;;;;;20890243;28;20091;-75
2021/04/05 14:48:03;;;;;;;7.57;2.67;;;13.80;94.00;;;;;;20869021;28;20033;-75
2021/04/05 14:58:16;;;;;;;13.00;3.40;;;13.50;93.40;;;;;;20879723;28;20423;-76
2021/04/05 15:08:51;;;;;;;11.07;2.85;;;13.40;93.80;;;;;;20864315;28;20435;-75
2021/04/05 15:18:53;;;;;;;16.50;3.00;;;13.40;94.70;;;;;;20914553;23;20453;-78
2021/04/05 15:28:55;;;;;;;10.75;3.22;;;13.10;94.90;;;;;;20900248;28;20041;-79
2021/04/05 15:38:56;;;;;;;;;;;12.80;95.70;;;;;;20875042;28;20032;-80
2021/04/05 15:49:06;;;;;;;10.13;3.33;;;12.60;96.50;;;;;;20888235;28;19921;-79
2021/04/05 15:59:20;;;;;;;9.15;3.45;;;12.40;97.50;;;;;;20904333;28;20496;-81
2021/04/05 16:09:23;;;;;;;5.80;2.58;;;12.40;98.20;;;;;;20885023;28;20112;-78
2021/04/05 16:19:27;;;;;;;8.75;3.17;;;12.50;98.40;;;;;;20904324;28;20040;-78
2021/04/05 16:29:31;;;;;;;11.63;3.72;;;12.40;99.10;;;;;;20886493;28;20040;-80
2021/04/05 16:39:35;;;;;;;13.88;3.97;;;12.20;99.90;;;;;;20900310;28;20063;-79
2021/04/05 16:49:38;;;;;;;13.60;4.00;;;12.10;99.90;;;;;;20870347;28;20037;-79
2021/04/05 16:59:47;;;;;;;9.57;3.75;;;11.80;99.80;;;;;;20876388;28;20029;-80
2021/04/05 17:09:52;;;;;;;9.63;3.92;;;11.60;99.90;;;;;;20914935;28;20045;-80
2021/04/05 17:20:04;;;;;;;9.85;3.97;;;11.30;99.90;;;;;;20918169;28;20371;-80
2021/04/05 17:30:30;;;;;;;11.87;3.83;;;10.20;99.90;;;;;;20940282;28;20040;-79
2021/04/05 17:40:38;;;;;;;12.73;4.50;;;9.60;99.90;;;;;;20951979;28;20036;-77
2021/04/05 17:51:02;;;;;;;14.43;4.05;;;9.20;99.90;;;;;;20922851;28;20029;-77
2021/04/05 18:01:15;;;;;;;10.43;4.80;;;8.30;99.90;;;;;;20898837;28;20384;-77
2021/04/05 18:11:43;;;;;;;15.55;5.22;;;7.80;99.90;;;;;;20899790;28;20130;-77
2021/04/05 18:21:59;;;;;;;11.23;3.83;;;7.60;99.90;;;;;;20889179;28;20029;-77
2021/04/05 18:32:00;;;;;;;2.15;1.00;;;7.40;99.90;;;;;;20864838;28;20769;-78
2021/04/05 18:42:03;;;;;;;0.30;0.30;;;6.20;99.90;;;;;;20892521;28;20029;-77
2021/04/05 18:52:27;;;;;;;1.60;0.82;;;5.00;99.90;;;;;;20860346;28;20662;-77
2021/04/05 19:02:35;;;;;;;1.90;0.80;;;4.30;99.90;;;;;;20877493;28;20025;-78
2021/04/05 19:13:18;;;;;;;0.82;0.32;;;4.20;99.90;;;;;;20872871;28;20041;-77
2021/04/05 19:23:33;;;;;;;1.20;0.60;;;4.30;99.90;;;;;;20841948;28;20036;-78
2021/04/05 19:34:00;;;;;;;0.45;0.40;;;3.70;99.90;;;;;;20850590;28;20033;-77
2021/04/05 19:44:38;;;;;;;1.00;0.93;;;3.60;99.90;;;;;;20863091;28;20041;-79
2021/04/05 19:55:03;;;;;;;0.93;0.77;;;3.40;99.90;;;;;;20861659;28;20033;-77
2021/04/05 20:05:27;;;;;;;2.30;0.45;;;3.20;99.90;;;;;;20889837;28;20102;-77
2021/04/05 20:15:50;;;;;;;1.05;0.65;;;3.40;99.90;;;;;;20901586;28;20060;-77
2021/04/05 20:25:52;;;;;;;5.10;1.10;;;3.10;99.90;;;;;;20878532;28;20094;-79
2021/04/05 20:36:27;;;;;;;2.95;1.25;;;3.10;99.90;;;;;;20932395;28;20040;-78
2021/04/05 20:46:39;;;;;;;3.45;1.27;;;2.80;99.90;;;;;;20888073;28;20044;-79
2021/04/05 20:57:04;;;;;;;4.47;1.30;;;2.70;99.90;;;;;;20882192;28;20301;-76
2021/04/05 21:07:13;;;;;;;4.03;1.23;;;2.60;99.90;;;;;;20897535;28;20028;-77
2021/04/05 21:17:30;;;;;;;4.25;1.98;;;2.60;99.90;;;;;;20906233;23;20072;-75
2021/04/05 21:27:45;;;;;;;2.80;1.60;;;2.20;99.90;;;;;;20881185;28;20048;-77
2021/04/05 21:37:48;;;;;;;7.25;1.95;;;2.10;99.90;;;;;;20887096;28;20040;-78
2021/04/05 21:47:52;;;;;;;8.48;1.90;;;2.00;99.90;;;;;;20882871;28;20056;-77
2021/04/05 21:57:55;;;;;;;7.10;1.92;;;2.00;99.90;;;;;;20864252;28;20029;-79
2021/04/05 22:07:57;;;;;;;2.47;1.35;;;2.10;99.90;;;;;;20879706;28;20029;-78
2021/04/05 22:18:08;;;;;;;6.72;1.50;;;2.30;99.90;;;;;;20868376;28;20098;-78
2021/04/05 22:28:15;;;;;;;9.00;2.03;;;2.40;99.90;;;;;;20886867;28;20071;-77
2021/04/05 22:38:16;;;;;;;5.03;2.30;;;1.60;99.90;;;;;;20869950;28;20565;-79
2021/04/05 22:48:20;;;;;;;9.43;2.15;;;1.50;99.90;;;;;;20836006;28;20096;-77
2021/04/05 22:58:29;;;;;;;4.20;1.80;;;1.30;99.90;;;;;;20840156;28;20562;-79
2021/04/05 23:08:31;;;;;;;5.75;2.67;;;1.30;99.90;;;;;;20834900;28;20136;-78
2021/04/05 23:18:33;;;;;;;7.47;2.20;;;1.30;99.90;;;;;;20835595;28;20128;-78
2021/04/05 23:28:41;;;;;;;10.85;2.72;;;1.20;99.90;;;;;;20840677;28;20038;-74
2021/04/05 23:38:51;;;;;;;4.93;2.20;;;1.20;99.90;;;;;;20853802;28;20538;-77
2021/04/05 23:48:54;;;;;;;4.25;2.70;;;1.40;99.90;;;;;;20853515;28;20052;-78
2021/04/05 23:58:57;;;;;;;4.00;2.45;;;1.50;99.90;;;;;;20870242;28;20564;-78
